KMVL

Morrisville-Stowe State Airport

Morrisville, Vermont, USA
METAR KMVL 211543Z AUTO 35010G14KT 2 1/2SM -SN M21/M26 A2987 RMK AO2 P0000 T12111256
Observed Flight Rules
Jan-21 @ 15:43 UTC (26 minutes ago)
Wind Visibility Conditions
350° at 10 knots
 Gusting to 14 knots
2 1/2 miles
  • Light Snow
Temperatures Readings Precipitation
Current -21°C / -6°F
Dewpoint -26°C / -15°F
Humidity 64%
Altimeter 29.87" Hg
Pressure 1011.52 hPa
Elevation 234
Current Rain 0.01
METAR KMVL 211543Z AUTO 35010G14KT 2 1/2SM -SN M21/M26 A2987 RMK AO2 P0000 T12111256
Observed Flight Rules
Jan-21 @ 15:43 UTC
(26 minutes ago)
Wind Visibility
350° at 10 knots
 Gusting to 14 knots
2 1/2 miles
Conditions
  • Light Snow
Temperature Dewpoint
-21°C / -6°F -26°C / -15°F
Humidity Altimeter Pressure
64% 29.87" Hg 1011.52 hPa
Current Rain
0.01